sensor_id;sensor_type;location;lat;lon;timestamp;P1;durP1;ratioP1;P2;durP2;ratioP2
45049;SDS011;61798;48.048;-1.928;2022-10-22T00:01:36;16.20;;;2.80;;
45049;SDS011;61798;48.048;-1.928;2022-10-22T00:03:43;20.88;;;3.20;;
45049;SDS011;61798;48.048;-1.928;2022-10-22T00:05:49;20.38;;;3.05;;
45049;SDS011;61798;48.048;-1.928;2022-10-22T00:07:55;27.95;;;4.07;;
45049;SDS011;61798;48.048;-1.928;2022-10-22T00:10:01;19.65;;;3.55;;
45049;SDS011;61798;48.048;-1.928;2022-10-22T00:12:07;19.67;;;2.88;;
45049;SDS011;61798;48.048;-1.928;2022-10-22T00:14:13;19.90;;;3.53;;
45049;SDS011;61798;48.048;-1.928;2022-10-22T00:16:20;21.95;;;3.20;;
45049;SDS011;61798;48.048;-1.928;2022-10-22T00:18:26;24.23;;;3.85;;
45049;SDS011;61798;48.048;-1.928;2022-10-22T00:20:32;19.95;;;3.50;;
45049;SDS011;61798;48.048;-1.928;2022-10-22T00:22:38;20.90;;;3.15;;
45049;SDS011;61798;48.048;-1.928;2022-10-22T00:24:44;21.00;;;3.20;;
45049;SDS011;61798;48.048;-1.928;2022-10-22T00:26:50;21.00;;;3.10;;
45049;SDS011;61798;48.048;-1.928;2022-10-22T00:28:56;21.70;;;3.58;;
45049;SDS011;61798;48.048;-1.928;2022-10-22T00:31:02;16.65;;;3.13;;
45049;SDS011;61798;48.048;-1.928;2022-10-22T00:33:08;28.33;;;3.90;;
45049;SDS011;61798;48.048;-1.928;2022-10-22T00:35:14;23.20;;;3.15;;
45049;SDS011;61798;48.048;-1.928;2022-10-22T00:37:20;24.92;;;3.20;;
45049;SDS011;61798;48.048;-1.928;2022-10-22T00:39:26;22.60;;;3.10;;
45049;SDS011;61798;48.048;-1.928;2022-10-22T00:41:33;20.50;;;3.08;;
45049;SDS011;61798;48.048;-1.928;2022-10-22T00:46:35;19.40;;;3.42;;
45049;SDS011;61798;48.048;-1.928;2022-10-22T00:48:41;14.82;;;3.10;;
45049;SDS011;61798;48.048;-1.928;2022-10-22T00:50:58;17.27;;;3.55;;
45049;SDS011;61798;48.048;-1.928;2022-10-22T00:53:08;22.73;;;3.60;;
45049;SDS011;61798;48.048;-1.928;2022-10-22T00:55:18;18.33;;;2.88;;
45049;SDS011;61798;48.048;-1.928;2022-10-22T00:57:25;20.55;;;3.60;;
45049;SDS011;61798;48.048;-1.928;2022-10-22T00:59:32;24.40;;;3.38;;
45049;SDS011;61798;48.048;-1.928;2022-10-22T01:01:38;18.65;;;3.90;;
45049;SDS011;61798;48.048;-1.928;2022-10-22T01:03:44;20.88;;;3.13;;
45049;SDS011;61798;48.048;-1.928;2022-10-22T01:05:55;22.48;;;3.78;;
45049;SDS011;61798;48.048;-1.928;2022-10-22T01:08:02;17.23;;;3.03;;
45049;SDS011;61798;48.048;-1.928;2022-10-22T01:12:27;24.48;;;3.45;;
45049;SDS011;61798;48.048;-1.928;2022-10-22T01:15:01;20.17;;;3.17;;
45049;SDS011;61798;48.048;-1.928;2022-10-22T01:30:28;25.90;;;3.63;;
45049;SDS011;61798;48.048;-1.928;2022-10-22T01:32:53;23.67;;;3.40;;
45049;SDS011;61798;48.048;-1.928;2022-10-22T01:35:05;16.75;;;3.03;;
45049;SDS011;61798;48.048;-1.928;2022-10-22T01:37:13;21.80;;;3.05;;
45049;SDS011;61798;48.048;-1.928;2022-10-22T01:39:21;24.08;;;3.92;;
45049;SDS011;61798;48.048;-1.928;2022-10-22T01:41:30;27.02;;;3.47;;
45049;SDS011;61798;48.048;-1.928;2022-10-22T01:43:36;21.75;;;3.30;;
45049;SDS011;61798;48.048;-1.928;2022-10-22T01:45:51;21.00;;;3.53;;
45049;SDS011;61798;48.048;-1.928;2022-10-22T01:48:06;33.58;;;4.28;;
45049;SDS011;61798;48.048;-1.928;2022-10-22T01:50:26;32.00;;;4.13;;
45049;SDS011;61798;48.048;-1.928;2022-10-22T01:58:05;26.55;;;4.45;;
45049;SDS011;61798;48.048;-1.928;2022-10-22T02:00:31;25.33;;;3.17;;
45049;SDS011;61798;48.048;-1.928;2022-10-22T02:02:47;23.23;;;3.70;;
45049;SDS011;61798;48.048;-1.928;2022-10-22T02:05:24;17.08;;;2.70;;
45049;SDS011;61798;48.048;-1.928;2022-10-22T02:07:36;30.30;;;3.83;;
45049;SDS011;61798;48.048;-1.928;2022-10-22T02:09:49;14.43;;;3.53;;
45049;SDS011;61798;48.048;-1.928;2022-10-22T02:11:57;27.83;;;4.55;;
45049;SDS011;61798;48.048;-1.928;2022-10-22T02:14:06;23.77;;;3.72;;
45049;SDS011;61798;48.048;-1.928;2022-10-22T02:16:21;20.85;;;3.13;;
45049;SDS011;61798;48.048;-1.928;2022-10-22T02:18:34;26.42;;;4.22;;
45049;SDS011;61798;48.048;-1.928;2022-10-22T02:20:44;35.90;;;4.15;;
45049;SDS011;61798;48.048;-1.928;2022-10-22T02:22:50;24.60;;;3.67;;
45049;SDS011;61798;48.048;-1.928;2022-10-22T02:24:56;21.42;;;3.17;;
45049;SDS011;61798;48.048;-1.928;2022-10-22T02:27:07;32.30;;;3.65;;
45049;SDS011;61798;48.048;-1.928;2022-10-22T02:29:25;20.17;;;3.45;;
45049;SDS011;61798;48.048;-1.928;2022-10-22T02:31:35;26.85;;;3.88;;
45049;SDS011;61798;48.048;-1.928;2022-10-22T02:33:46;20.38;;;2.95;;
45049;SDS011;61798;48.048;-1.928;2022-10-22T02:35:55;33.45;;;3.42;;
45049;SDS011;61798;48.048;-1.928;2022-10-22T02:38:04;27.27;;;4.03;;
45049;SDS011;61798;48.048;-1.928;2022-10-22T02:40:12;22.02;;;3.67;;
45049;SDS011;61798;48.048;-1.928;2022-10-22T02:42:18;23.77;;;3.80;;
45049;SDS011;61798;48.048;-1.928;2022-10-22T02:44:24;32.60;;;4.28;;
45049;SDS011;61798;48.048;-1.928;2022-10-22T02:46:30;32.72;;;3.90;;
45049;SDS011;61798;48.048;-1.928;2022-10-22T02:48:36;26.10;;;3.10;;
45049;SDS011;61798;48.048;-1.928;2022-10-22T02:50:42;23.25;;;3.55;;
45049;SDS011;61798;48.048;-1.928;2022-10-22T02:52:48;22.02;;;3.90;;
45049;SDS011;61798;48.048;-1.928;2022-10-22T02:54:53;26.40;;;3.80;;
45049;SDS011;61798;48.048;-1.928;2022-10-22T02:56:59;28.13;;;4.18;;
45049;SDS011;61798;48.048;-1.928;2022-10-22T02:59:05;29.88;;;3.75;;
45049;SDS011;61798;48.048;-1.928;2022-10-22T03:01:11;27.55;;;4.20;;
45049;SDS011;61798;48.048;-1.928;2022-10-22T03:03:17;30.10;;;4.20;;
45049;SDS011;61798;48.048;-1.928;2022-10-22T03:05:23;23.88;;;3.72;;
45049;SDS011;61798;48.048;-1.928;2022-10-22T03:07:29;26.55;;;4.05;;
45049;SDS011;61798;48.048;-1.928;2022-10-22T03:09:35;21.00;;;3.50;;
45049;SDS011;61798;48.048;-1.928;2022-10-22T03:11:41;35.08;;;4.07;;
45049;SDS011;61798;48.048;-1.928;2022-10-22T03:13:47;39.75;;;4.07;;
45049;SDS011;61798;48.048;-1.928;2022-10-22T03:15:53;29.00;;;4.43;;
45049;SDS011;61798;48.048;-1.928;2022-10-22T03:17:59;26.83;;;3.97;;
45049;SDS011;61798;48.048;-1.928;2022-10-22T03:20:05;35.38;;;3.72;;
45049;SDS011;61798;48.048;-1.928;2022-10-22T03:22:16;40.15;;;4.25;;
45049;SDS011;61798;48.048;-1.928;2022-10-22T03:24:36;31.13;;;4.05;;
45049;SDS011;61798;48.048;-1.928;2022-10-22T03:26:47;24.38;;;4.18;;
45049;SDS011;61798;48.048;-1.928;2022-10-22T03:28:56;30.38;;;3.50;;
45049;SDS011;61798;48.048;-1.928;2022-10-22T03:31:02;26.48;;;4.72;;
45049;SDS011;61798;48.048;-1.928;2022-10-22T03:33:08;37.08;;;5.10;;
45049;SDS011;61798;48.048;-1.928;2022-10-22T03:35:14;24.45;;;3.45;;
45049;SDS011;61798;48.048;-1.928;2022-10-22T03:37:20;27.63;;;4.35;;
45049;SDS011;61798;48.048;-1.928;2022-10-22T03:39:28;33.97;;;4.85;;
45049;SDS011;61798;48.048;-1.928;2022-10-22T03:41:36;18.27;;;3.45;;
45049;SDS011;61798;48.048;-1.928;2022-10-22T03:43:42;23.65;;;4.07;;
45049;SDS011;61798;48.048;-1.928;2022-10-22T03:45:49;37.78;;;4.82;;
45049;SDS011;61798;48.048;-1.928;2022-10-22T03:47:55;34.38;;;4.28;;
45049;SDS011;61798;48.048;-1.928;2022-10-22T03:50:01;30.08;;;4.25;;
45049;SDS011;61798;48.048;-1.928;2022-10-22T03:52:10;25.70;;;3.60;;
45049;SDS011;61798;48.048;-1.928;2022-10-22T03:54:17;24.92;;;3.03;;
45049;SDS011;61798;48.048;-1.928;2022-10-22T03:56:23;24.67;;;3.97;;
45049;SDS011;61798;48.048;-1.928;2022-10-22T03:58:29;27.73;;;3.97;;
45049;SDS011;61798;48.048;-1.928;2022-10-22T04:00:35;27.33;;;4.07;;
45049;SDS011;61798;48.048;-1.928;2022-10-22T04:02:41;28.52;;;3.63;;
45049;SDS011;61798;48.048;-1.928;2022-10-22T04:04:47;29.33;;;4.10;;
45049;SDS011;61798;48.048;-1.928;2022-10-22T04:06:53;25.67;;;3.92;;
45049;SDS011;61798;48.048;-1.928;2022-10-22T04:08:59;32.58;;;4.20;;
45049;SDS011;61798;48.048;-1.928;2022-10-22T04:11:06;24.15;;;3.22;;
45049;SDS011;61798;48.048;-1.928;2022-10-22T04:13:12;23.10;;;3.55;;
45049;SDS011;61798;48.048;-1.928;2022-10-22T04:15:18;27.13;;;2.97;;
45049;SDS011;61798;48.048;-1.928;2022-10-22T04:17:24;24.33;;;3.55;;
45049;SDS011;61798;48.048;-1.928;2022-10-22T04:19:30;27.75;;;3.78;;
45049;SDS011;61798;48.048;-1.928;2022-10-22T04:21:37;22.15;;;3.67;;
45049;SDS011;61798;48.048;-1.928;2022-10-22T04:23:44;29.92;;;3.78;;
45049;SDS011;61798;48.048;-1.928;2022-10-22T04:26:02;30.45;;;3.72;;
45049;SDS011;61798;48.048;-1.928;2022-10-22T04:28:09;18.88;;;4.55;;
45049;SDS011;61798;48.048;-1.928;2022-10-22T04:30:15;18.73;;;2.67;;
45049;SDS011;61798;48.048;-1.928;2022-10-22T04:32:21;21.83;;;3.78;;
45049;SDS011;61798;48.048;-1.928;2022-10-22T04:34:27;25.05;;;3.33;;
45049;SDS011;61798;48.048;-1.928;2022-10-22T04:36:33;25.35;;;3.78;;
45049;SDS011;61798;48.048;-1.928;2022-10-22T04:38:40;22.45;;;3.55;;
45049;SDS011;61798;48.048;-1.928;2022-10-22T04:40:47;25.20;;;3.75;;
45049;SDS011;61798;48.048;-1.928;2022-10-22T04:42:53;22.60;;;3.45;;
45049;SDS011;61798;48.048;-1.928;2022-10-22T04:44:58;36.67;;;4.82;;
45049;SDS011;61798;48.048;-1.928;2022-10-22T04:47:04;33.88;;;4.13;;
45049;SDS011;61798;48.048;-1.928;2022-10-22T04:49:10;23.90;;;3.60;;
45049;SDS011;61798;48.048;-1.928;2022-10-22T04:51:17;32.35;;;4.20;;
45049;SDS011;61798;48.048;-1.928;2022-10-22T04:53:24;29.10;;;4.10;;
45049;SDS011;61798;48.048;-1.928;2022-10-22T04:55:30;31.13;;;4.30;;
45049;SDS011;61798;48.048;-1.928;2022-10-22T04:57:36;30.05;;;4.82;;
45049;SDS011;61798;48.048;-1.928;2022-10-22T04:59:42;24.70;;;3.70;;
45049;SDS011;61798;48.048;-1.928;2022-10-22T05:01:48;39.88;;;4.53;;
45049;SDS011;61798;48.048;-1.928;2022-10-22T05:03:55;29.80;;;3.85;;
45049;SDS011;61798;48.048;-1.928;2022-10-22T05:06:02;40.90;;;4.82;;
45049;SDS011;61798;48.048;-1.928;2022-10-22T05:08:08;46.50;;;5.38;;
45049;SDS011;61798;48.048;-1.928;2022-10-22T05:10:14;23.67;;;4.35;;
45049;SDS011;61798;48.048;-1.928;2022-10-22T05:12:20;36.40;;;4.93;;
45049;SDS011;61798;48.048;-1.928;2022-10-22T05:14:26;50.70;;;4.72;;
45049;SDS011;61798;48.048;-1.928;2022-10-22T05:16:32;29.00;;;4.50;;
45049;SDS011;61798;48.048;-1.928;2022-10-22T05:18:40;38.67;;;4.15;;
45049;SDS011;61798;48.048;-1.928;2022-10-22T05:20:48;36.40;;;5.00;;
45049;SDS011;61798;48.048;-1.928;2022-10-22T05:22:54;24.75;;;3.75;;
45049;SDS011;61798;48.048;-1.928;2022-10-22T05:24:59;32.92;;;4.22;;
45049;SDS011;61798;48.048;-1.928;2022-10-22T05:27:05;32.08;;;4.53;;
45049;SDS011;61798;48.048;-1.928;2022-10-22T05:29:11;30.85;;;4.20;;
45049;SDS011;61798;48.048;-1.928;2022-10-22T05:31:18;27.02;;;4.43;;
45049;SDS011;61798;48.048;-1.928;2022-10-22T05:33:25;20.88;;;3.72;;
45049;SDS011;61798;48.048;-1.928;2022-10-22T05:35:32;30.08;;;3.83;;
45049;SDS011;61798;48.048;-1.928;2022-10-22T05:37:38;29.13;;;4.80;;
45049;SDS011;61798;48.048;-1.928;2022-10-22T05:39:44;24.25;;;4.10;;
45049;SDS011;61798;48.048;-1.928;2022-10-22T05:41:49;27.20;;;4.53;;
45049;SDS011;61798;48.048;-1.928;2022-10-22T05:43:56;24.08;;;3.45;;
45049;SDS011;61798;48.048;-1.928;2022-10-22T05:46:07;28.00;;;3.80;;
45049;SDS011;61798;48.048;-1.928;2022-10-22T05:48:15;21.75;;;3.83;;
45049;SDS011;61798;48.048;-1.928;2022-10-22T05:50:21;35.47;;;4.25;;
45049;SDS011;61798;48.048;-1.928;2022-10-22T05:52:28;25.58;;;3.67;;
45049;SDS011;61798;48.048;-1.928;2022-10-22T05:54:35;31.08;;;4.80;;
45049;SDS011;61798;48.048;-1.928;2022-10-22T05:56:42;31.08;;;4.32;;
45049;SDS011;61798;48.048;-1.928;2022-10-22T05:58:50;31.25;;;4.18;;
45049;SDS011;61798;48.048;-1.928;2022-10-22T06:03:23;24.13;;;4.72;;
45049;SDS011;61798;48.048;-1.928;2022-10-22T06:05:34;26.95;;;3.92;;
45049;SDS011;61798;48.048;-1.928;2022-10-22T06:07:43;39.92;;;5.25;;
45049;SDS011;61798;48.048;-1.928;2022-10-22T06:09:49;32.55;;;4.85;;
45049;SDS011;61798;48.048;-1.928;2022-10-22T06:11:57;38.88;;;4.63;;
45049;SDS011;61798;48.048;-1.928;2022-10-22T06:14:04;33.08;;;4.75;;
45049;SDS011;61798;48.048;-1.928;2022-10-22T06:16:12;25.02;;;4.32;;
45049;SDS011;61798;48.048;-1.928;2022-10-22T06:18:18;42.08;;;5.22;;
45049;SDS011;61798;48.048;-1.928;2022-10-22T06:20:25;34.35;;;4.43;;
45049;SDS011;61798;48.048;-1.928;2022-10-22T06:22:32;37.00;;;4.55;;
45049;SDS011;61798;48.048;-1.928;2022-10-22T06:24:39;40.38;;;5.13;;
45049;SDS011;61798;48.048;-1.928;2022-10-22T06:26:49;53.58;;;5.70;;
45049;SDS011;61798;48.048;-1.928;2022-10-22T06:28:56;37.03;;;4.93;;
45049;SDS011;61798;48.048;-1.928;2022-10-22T06:31:04;31.90;;;4.13;;
45049;SDS011;61798;48.048;-1.928;2022-10-22T06:33:12;38.20;;;4.72;;
45049;SDS011;61798;48.048;-1.928;2022-10-22T06:35:19;41.05;;;4.95;;
45049;SDS011;61798;48.048;-1.928;2022-10-22T06:37:27;27.33;;;4.40;;
45049;SDS011;61798;48.048;-1.928;2022-10-22T06:39:34;42.97;;;4.90;;
45049;SDS011;61798;48.048;-1.928;2022-10-22T06:41:41;33.60;;;5.32;;
45049;SDS011;61798;48.048;-1.928;2022-10-22T06:43:49;35.20;;;5.38;;
45049;SDS011;61798;48.048;-1.928;2022-10-22T06:46:00;33.35;;;5.00;;
45049;SDS011;61798;48.048;-1.928;2022-10-22T06:48:09;34.38;;;4.85;;
45049;SDS011;61798;48.048;-1.928;2022-10-22T06:50:16;37.00;;;5.40;;
45049;SDS011;61798;48.048;-1.928;2022-10-22T06:52:24;37.42;;;5.70;;
45049;SDS011;61798;48.048;-1.928;2022-10-22T06:54:31;31.67;;;4.97;;
45049;SDS011;61798;48.048;-1.928;2022-10-22T06:56:39;35.03;;;5.47;;
45049;SDS011;61798;48.048;-1.928;2022-10-22T06:58:49;26.83;;;4.97;;
45049;SDS011;61798;48.048;-1.928;2022-10-22T07:01:12;25.77;;;4.60;;
45049;SDS011;61798;48.048;-1.928;2022-10-22T07:03:20;34.08;;;6.03;;
45049;SDS011;61798;48.048;-1.928;2022-10-22T07:05:28;29.55;;;5.25;;
45049;SDS011;61798;48.048;-1.928;2022-10-22T07:07:35;31.33;;;6.07;;
45049;SDS011;61798;48.048;-1.928;2022-10-22T07:09:42;31.52;;;5.35;;
45049;SDS011;61798;48.048;-1.928;2022-10-22T07:11:52;31.70;;;6.05;;
45049;SDS011;61798;48.048;-1.928;2022-10-22T07:13:58;34.38;;;4.80;;
45049;SDS011;61798;48.048;-1.928;2022-10-22T07:16:06;30.63;;;6.05;;
45049;SDS011;61798;48.048;-1.928;2022-10-22T07:18:14;29.80;;;6.18;;
45049;SDS011;61798;48.048;-1.928;2022-10-22T07:20:21;32.95;;;5.30;;
45049;SDS011;61798;48.048;-1.928;2022-10-22T07:22:28;26.30;;;6.10;;
45049;SDS011;61798;48.048;-1.928;2022-10-22T07:24:36;25.75;;;5.60;;
45049;SDS011;61798;48.048;-1.928;2022-10-22T07:26:43;31.73;;;6.55;;
45049;SDS011;61798;48.048;-1.928;2022-10-22T07:28:50;33.17;;;8.02;;
45049;SDS011;61798;48.048;-1.928;2022-10-22T07:30:58;25.20;;;5.57;;
45049;SDS011;61798;48.048;-1.928;2022-10-22T07:33:05;32.08;;;6.90;;
45049;SDS011;61798;48.048;-1.928;2022-10-22T07:35:13;25.35;;;6.47;;
45049;SDS011;61798;48.048;-1.928;2022-10-22T07:37:20;26.58;;;7.65;;
45049;SDS011;61798;48.048;-1.928;2022-10-22T07:39:26;31.65;;;7.10;;
45049;SDS011;61798;48.048;-1.928;2022-10-22T07:41:36;25.95;;;7.07;;
45049;SDS011;61798;48.048;-1.928;2022-10-22T07:43:43;30.40;;;6.68;;
45049;SDS011;61798;48.048;-1.928;2022-10-22T07:45:50;34.00;;;7.05;;
45049;SDS011;61798;48.048;-1.928;2022-10-22T07:47:58;29.48;;;6.57;;
45049;SDS011;61798;48.048;-1.928;2022-10-22T07:50:06;29.85;;;6.97;;
45049;SDS011;61798;48.048;-1.928;2022-10-22T07:52:13;24.17;;;6.38;;
45049;SDS011;61798;48.048;-1.928;2022-10-22T07:54:19;23.65;;;6.05;;
45049;SDS011;61798;48.048;-1.928;2022-10-22T07:56:25;24.08;;;7.28;;
45049;SDS011;61798;48.048;-1.928;2022-10-22T07:58:31;35.88;;;8.07;;
45049;SDS011;61798;48.048;-1.928;2022-10-22T08:00:38;23.85;;;7.53;;
45049;SDS011;61798;48.048;-1.928;2022-10-22T08:02:44;34.65;;;8.65;;
45049;SDS011;61798;48.048;-1.928;2022-10-22T08:04:50;29.67;;;7.90;;
45049;SDS011;61798;48.048;-1.928;2022-10-22T08:06:56;25.25;;;7.82;;
45049;SDS011;61798;48.048;-1.928;2022-10-22T08:09:02;33.85;;;7.68;;
45049;SDS011;61798;48.048;-1.928;2022-10-22T08:11:08;36.22;;;8.55;;
45049;SDS011;61798;48.048;-1.928;2022-10-22T08:13:14;32.63;;;7.57;;
45049;SDS011;61798;48.048;-1.928;2022-10-22T08:15:20;31.58;;;9.18;;
45049;SDS011;61798;48.048;-1.928;2022-10-22T08:17:27;26.60;;;7.55;;
45049;SDS011;61798;48.048;-1.928;2022-10-22T08:19:33;23.65;;;7.15;;
45049;SDS011;61798;48.048;-1.928;2022-10-22T08:21:40;23.67;;;7.10;;
45049;SDS011;61798;48.048;-1.928;2022-10-22T08:23:46;24.60;;;6.15;;
45049;SDS011;61798;48.048;-1.928;2022-10-22T08:25:52;24.60;;;7.13;;
45049;SDS011;61798;48.048;-1.928;2022-10-22T08:27:58;29.92;;;7.03;;
45049;SDS011;61798;48.048;-1.928;2022-10-22T08:30:04;21.80;;;5.95;;
45049;SDS011;61798;48.048;-1.928;2022-10-22T08:32:10;20.88;;;5.80;;
45049;SDS011;61798;48.048;-1.928;2022-10-22T08:34:17;25.27;;;6.60;;
45049;SDS011;61798;48.048;-1.928;2022-10-22T08:36:24;30.42;;;6.05;;
45049;SDS011;61798;48.048;-1.928;2022-10-22T08:38:30;30.83;;;6.40;;
45049;SDS011;61798;48.048;-1.928;2022-10-22T08:40:37;27.08;;;5.93;;
45049;SDS011;61798;48.048;-1.928;2022-10-22T08:43:04;31.65;;;5.82;;
45049;SDS011;61798;48.048;-1.928;2022-10-22T08:45:23;30.48;;;6.38;;
45049;SDS011;61798;48.048;-1.928;2022-10-22T08:47:40;24.45;;;6.60;;
45049;SDS011;61798;48.048;-1.928;2022-10-22T08:50:09;25.33;;;5.78;;
45049;SDS011;61798;48.048;-1.928;2022-10-22T08:52:19;26.52;;;6.32;;
45049;SDS011;61798;48.048;-1.928;2022-10-22T08:54:35;26.10;;;7.10;;
45049;SDS011;61798;48.048;-1.928;2022-10-22T08:59:18;27.20;;;7.82;;
45049;SDS011;61798;48.048;-1.928;2022-10-22T09:01:37;22.98;;;6.60;;
45049;SDS011;61798;48.048;-1.928;2022-10-22T09:03:50;31.67;;;6.75;;
45049;SDS011;61798;48.048;-1.928;2022-10-22T09:08:14;27.83;;;6.20;;
45049;SDS011;61798;48.048;-1.928;2022-10-22T09:10:24;28.15;;;6.90;;
45049;SDS011;61798;48.048;-1.928;2022-10-22T09:12:34;24.92;;;6.35;;
45049;SDS011;61798;48.048;-1.928;2022-10-22T09:14:40;30.42;;;6.03;;
45049;SDS011;61798;48.048;-1.928;2022-10-22T09:19:17;24.73;;;7.07;;
45049;SDS011;61798;48.048;-1.928;2022-10-22T09:21:39;23.27;;;5.85;;
45049;SDS011;61798;48.048;-1.928;2022-10-22T09:24:10;27.83;;;6.63;;
45049;SDS011;61798;48.048;-1.928;2022-10-22T09:26:22;27.55;;;7.20;;
45049;SDS011;61798;48.048;-1.928;2022-10-22T09:28:30;22.92;;;6.30;;
45049;SDS011;61798;48.048;-1.928;2022-10-22T09:30:36;28.40;;;6.60;;
45049;SDS011;61798;48.048;-1.928;2022-10-22T09:32:43;28.30;;;6.30;;
45049;SDS011;61798;48.048;-1.928;2022-10-22T09:34:49;29.02;;;6.78;;
45049;SDS011;61798;48.048;-1.928;2022-10-22T09:37:03;23.83;;;5.85;;
45049;SDS011;61798;48.048;-1.928;2022-10-22T09:39:23;23.25;;;6.35;;
45049;SDS011;61798;48.048;-1.928;2022-10-22T09:41:32;19.02;;;5.38;;
45049;SDS011;61798;48.048;-1.928;2022-10-22T09:43:38;20.17;;;5.10;;
45049;SDS011;61798;48.048;-1.928;2022-10-22T09:45:45;23.10;;;5.30;;
45049;SDS011;61798;48.048;-1.928;2022-10-22T09:48:08;22.42;;;4.65;;
45049;SDS011;61798;48.048;-1.928;2022-10-22T09:50:24;23.92;;;5.43;;
45049;SDS011;61798;48.048;-1.928;2022-10-22T09:52:31;18.02;;;4.85;;
45049;SDS011;61798;48.048;-1.928;2022-10-22T09:54:40;20.60;;;5.40;;
45049;SDS011;61798;48.048;-1.928;2022-10-22T09:56:50;31.42;;;6.22;;
45049;SDS011;61798;48.048;-1.928;2022-10-22T09:58:56;27.35;;;6.00;;
45049;SDS011;61798;48.048;-1.928;2022-10-22T10:01:02;19.65;;;4.82;;
45049;SDS011;61798;48.048;-1.928;2022-10-22T10:03:14;16.33;;;4.28;;
45049;SDS011;61798;48.048;-1.928;2022-10-22T10:05:27;28.60;;;4.57;;
45049;SDS011;61798;48.048;-1.928;2022-10-22T10:07:38;23.38;;;4.55;;
45049;SDS011;61798;48.048;-1.928;2022-10-22T10:09:44;23.60;;;4.55;;
45049;SDS011;61798;48.048;-1.928;2022-10-22T10:11:53;19.48;;;4.05;;
45049;SDS011;61798;48.048;-1.928;2022-10-22T10:14:07;26.30;;;4.82;;
45049;SDS011;61798;48.048;-1.928;2022-10-22T10:16:42;19.13;;;4.25;;
45049;SDS011;61798;48.048;-1.928;2022-10-22T10:33:27;15.00;;;3.20;;
45049;SDS011;61798;48.048;-1.928;2022-10-22T10:40:37;20.48;;;3.58;;
45049;SDS011;61798;48.048;-1.928;2022-10-22T10:50:29;17.20;;;3.40;;
45049;SDS011;61798;48.048;-1.928;2022-10-22T11:03:39;11.85;;;2.42;;
45049;SDS011;61798;48.048;-1.928;2022-10-22T11:11:05;19.98;;;2.97;;
45049;SDS011;61798;48.048;-1.928;2022-10-22T11:13:25;16.98;;;2.60;;
45049;SDS011;61798;48.048;-1.928;2022-10-22T11:15:42;14.90;;;2.50;;
45049;SDS011;61798;48.048;-1.928;2022-10-22T11:17:56;17.83;;;2.45;;
45049;SDS011;61798;48.048;-1.928;2022-10-22T11:20:15;12.55;;;2.17;;
45049;SDS011;61798;48.048;-1.928;2022-10-22T11:22:28;15.70;;;2.92;;
45049;SDS011;61798;48.048;-1.928;2022-10-22T11:24:54;12.23;;;2.33;;
45049;SDS011;61798;48.048;-1.928;2022-10-22T11:27:22;13.70;;;2.50;;
45049;SDS011;61798;48.048;-1.928;2022-10-22T11:29:36;12.57;;;2.42;;
45049;SDS011;61798;48.048;-1.928;2022-10-22T11:31:50;14.23;;;2.53;;
45049;SDS011;61798;48.048;-1.928;2022-10-22T11:34:03;11.57;;;2.70;;
45049;SDS011;61798;48.048;-1.928;2022-10-22T11:36:20;12.82;;;2.25;;
45049;SDS011;61798;48.048;-1.928;2022-10-22T11:38:28;13.60;;;2.05;;
45049;SDS011;61798;48.048;-1.928;2022-10-22T11:40:42;10.38;;;1.98;;
45049;SDS011;61798;48.048;-1.928;2022-10-22T11:42:56;9.85;;;2.38;;
45049;SDS011;61798;48.048;-1.928;2022-10-22T11:47:19;7.38;;;1.70;;
45049;SDS011;61798;48.048;-1.928;2022-10-22T11:50:15;8.95;;;1.67;;
45049;SDS011;61798;48.048;-1.928;2022-10-22T11:52:05;12.45;;;2.55;;
45049;SDS011;61798;48.048;-1.928;2022-10-22T11:54:29;14.82;;;2.45;;
45049;SDS011;61798;48.048;-1.928;2022-10-22T11:56:35;11.00;;;1.92;;
45049;SDS011;61798;48.048;-1.928;2022-10-22T11:58:43;10.65;;;2.15;;
45049;SDS011;61798;48.048;-1.928;2022-10-22T12:00:50;7.03;;;1.65;;
45049;SDS011;61798;48.048;-1.928;2022-10-22T12:03:04;14.90;;;2.30;;
45049;SDS011;61798;48.048;-1.928;2022-10-22T12:09:33;5.13;;;1.50;;
45049;SDS011;61798;48.048;-1.928;2022-10-22T12:11:45;5.72;;;1.88;;
45049;SDS011;61798;48.048;-1.928;2022-10-22T12:16:21;7.75;;;1.60;;
45049;SDS011;61798;48.048;-1.928;2022-10-22T12:18:34;11.25;;;2.03;;
45049;SDS011;61798;48.048;-1.928;2022-10-22T12:20:49;8.13;;;1.67;;
45049;SDS011;61798;48.048;-1.928;2022-10-22T12:22:57;7.30;;;1.42;;
45049;SDS011;61798;48.048;-1.928;2022-10-22T12:25:20;11.75;;;2.65;;
45049;SDS011;61798;48.048;-1.928;2022-10-22T12:27:33;9.32;;;2.42;;
45049;SDS011;61798;48.048;-1.928;2022-10-22T12:29:40;11.70;;;2.35;;
45049;SDS011;61798;48.048;-1.928;2022-10-22T12:31:46;8.43;;;1.98;;
45049;SDS011;61798;48.048;-1.928;2022-10-22T12:33:57;7.88;;;1.73;;
45049;SDS011;61798;48.048;-1.928;2022-10-22T12:36:03;7.05;;;1.63;;
45049;SDS011;61798;48.048;-1.928;2022-10-22T12:38:17;6.90;;;1.92;;
45049;SDS011;61798;48.048;-1.928;2022-10-22T12:40:29;12.55;;;1.80;;
45049;SDS011;61798;48.048;-1.928;2022-10-22T12:42:38;8.10;;;1.80;;
45049;SDS011;61798;48.048;-1.928;2022-10-22T12:44:54;6.95;;;1.55;;
45049;SDS011;61798;48.048;-1.928;2022-10-22T12:47:01;7.05;;;1.85;;
45049;SDS011;61798;48.048;-1.928;2022-10-22T12:49:14;10.38;;;1.73;;
45049;SDS011;61798;48.048;-1.928;2022-10-22T12:51:23;8.52;;;1.58;;
45049;SDS011;61798;48.048;-1.928;2022-10-22T12:53:30;10.73;;;1.80;;
45049;SDS011;61798;48.048;-1.928;2022-10-22T12:55:39;8.25;;;2.22;;
45049;SDS011;61798;48.048;-1.928;2022-10-22T12:57:48;6.38;;;1.48;;
45049;SDS011;61798;48.048;-1.928;2022-10-22T12:59:54;5.47;;;1.30;;
45049;SDS011;61798;48.048;-1.928;2022-10-22T13:02:00;8.75;;;1.88;;
45049;SDS011;61798;48.048;-1.928;2022-10-22T13:06:22;8.70;;;1.85;;
45049;SDS011;61798;48.048;-1.928;2022-10-22T13:08:30;10.00;;;1.90;;
45049;SDS011;61798;48.048;-1.928;2022-10-22T13:10:39;8.40;;;1.92;;
45049;SDS011;61798;48.048;-1.928;2022-10-22T13:12:49;6.38;;;1.67;;
45049;SDS011;61798;48.048;-1.928;2022-10-22T13:15:16;7.53;;;2.08;;
45049;SDS011;61798;48.048;-1.928;2022-10-22T13:17:37;11.02;;;1.88;;
45049;SDS011;61798;48.048;-1.928;2022-10-22T13:21:57;8.85;;;1.95;;
45049;SDS011;61798;48.048;-1.928;2022-10-22T13:24:17;10.50;;;2.00;;
45049;SDS011;61798;48.048;-1.928;2022-10-22T13:26:30;12.70;;;2.22;;
45049;SDS011;61798;48.048;-1.928;2022-10-22T13:28:40;8.80;;;1.75;;
45049;SDS011;61798;48.048;-1.928;2022-10-22T13:30:50;7.43;;;2.03;;
45049;SDS011;61798;48.048;-1.928;2022-10-22T13:33:02;6.82;;;1.60;;
45049;SDS011;61798;48.048;-1.928;2022-10-22T13:35:11;9.60;;;1.98;;
45049;SDS011;61798;48.048;-1.928;2022-10-22T13:37:21;7.32;;;1.90;;
45049;SDS011;61798;48.048;-1.928;2022-10-22T13:39:27;6.53;;;1.40;;
45049;SDS011;61798;48.048;-1.928;2022-10-22T13:41:37;7.72;;;1.92;;
45049;SDS011;61798;48.048;-1.928;2022-10-22T13:43:44;6.60;;;2.08;;
45049;SDS011;61798;48.048;-1.928;2022-10-22T13:45:51;6.53;;;1.70;;
45049;SDS011;61798;48.048;-1.928;2022-10-22T13:48:00;7.70;;;1.95;;
45049;SDS011;61798;48.048;-1.928;2022-10-22T13:50:12;11.95;;;1.88;;
45049;SDS011;61798;48.048;-1.928;2022-10-22T13:52:27;10.82;;;2.28;;
45049;SDS011;61798;48.048;-1.928;2022-10-22T13:54:34;3.53;;;1.52;;
45049;SDS011;61798;48.048;-1.928;2022-10-22T13:56:42;7.22;;;1.40;;
45049;SDS011;61798;48.048;-1.928;2022-10-22T13:58:48;6.95;;;1.73;;
45049;SDS011;61798;48.048;-1.928;2022-10-22T14:00:55;5.38;;;1.90;;
45049;SDS011;61798;48.048;-1.928;2022-10-22T14:03:03;7.85;;;1.60;;
45049;SDS011;61798;48.048;-1.928;2022-10-22T14:05:10;5.45;;;1.63;;
45049;SDS011;61798;48.048;-1.928;2022-10-22T14:07:16;4.78;;;1.38;;
45049;SDS011;61798;48.048;-1.928;2022-10-22T14:09:22;6.60;;;1.60;;